createdAt,value
2022-08-10T00:01:52.190Z,102643.16
2022-08-10T00:04:21.143Z,102633.31
2022-08-10T00:06:50.050Z,102647.59
2022-08-10T00:09:16.988Z,102632.38
2022-08-10T00:11:43.808Z,102656.22
2022-08-10T00:14:10.728Z,102649.91
2022-08-10T00:16:37.607Z,102655.03
2022-08-10T00:19:04.469Z,102647.38
2022-08-10T00:21:31.408Z,102635.28
2022-08-10T00:23:58.268Z,102649.56
2022-08-10T00:26:25.208Z,102647.88
2022-08-10T00:28:52.968Z,102632.28
2022-08-10T00:31:21.330Z,102640.66
2022-08-10T00:33:48.287Z,102654.00
2022-08-10T00:36:15.148Z,102647.38
2022-08-10T00:38:42.447Z,102649.16
2022-08-10T00:41:09.349Z,102655.88
2022-08-10T00:43:36.268Z,102660.31
2022-08-10T00:46:04.188Z,102642.09
2022-08-10T00:48:31.315Z,102640.44
2022-08-10T00:50:59.215Z,102649.78
2022-08-10T00:53:29.136Z,102655.03
2022-08-10T00:57:14.335Z,102650.69
2022-08-10T00:58:43.090Z,102651.50
2022-08-10T01:01:11.731Z,102648.03
2022-08-10T01:04:36.251Z,102648.75
2022-08-10T01:07:08.190Z,102641.72
2022-08-10T01:09:55.579Z,102643.28
2022-08-10T01:12:45.549Z,102646.03
2022-08-10T01:15:40.729Z,102648.75
2022-08-10T01:18:21.410Z,102639.28
2022-08-10T01:21:23.609Z,102639.28
2022-08-10T01:24:15.411Z,102640.69
2022-08-10T01:27:19.910Z,102640.31
2022-08-10T01:29:59.968Z,102628.44
2022-08-10T01:32:33.367Z,102635.13
2022-08-10T01:35:11.588Z,102618.47
2022-08-10T01:37:42.628Z,102635.97
2022-08-10T01:40:23.075Z,102631.78
2022-08-10T01:42:49.928Z,102622.00
2022-08-10T01:45:17.089Z,102628.31
2022-08-10T01:48:02.229Z,102621.78
2022-08-10T01:50:32.348Z,102618.63
2022-08-10T01:53:03.748Z,102621.38
2022-08-10T01:55:30.668Z,102614.66
2022-08-10T01:57:57.629Z,102622.22
2022-08-10T02:00:25.090Z,102628.53
2022-08-10T02:02:51.987Z,102629.69
2022-08-10T02:05:18.828Z,102631.69
2022-08-10T02:07:45.789Z,102618.69
2022-08-10T02:10:13.989Z,102628.44
2022-08-10T02:12:41.871Z,102625.72
2022-08-10T02:15:15.188Z,102631.81
2022-08-10T02:17:58.638Z,102622.78
2022-08-10T02:20:41.190Z,102627.41
2022-08-10T02:23:14.507Z,102626.16
2022-08-10T02:25:43.808Z,102620.81
2022-08-10T02:28:27.051Z,102626.16
2022-08-10T02:31:03.010Z,102635.41
2022-08-10T02:33:37.169Z,102645.09
2022-08-10T02:36:06.448Z,102627.94
2022-08-10T02:38:59.665Z,102652.13
2022-08-10T02:45:02.893Z,102647.38
2022-08-10T02:45:23.960Z,102648.84
2022-08-10T02:47:52.255Z,102657.25
2022-08-10T02:50:35.288Z,102659.06
2022-08-10T02:53:06.507Z,102649.06
2022-08-10T02:55:36.208Z,102654.09
2022-08-10T02:58:16.767Z,102647.72
2022-08-10T03:00:47.183Z,102656.63
2022-08-10T03:03:25.629Z,102649.91
2022-08-10T03:06:00.929Z,102648.34
2022-08-10T03:08:29.331Z,102656.44
2022-08-10T03:10:56.288Z,102656.63
2022-08-10T03:13:23.227Z,102643.22
2022-08-10T03:15:50.116Z,102646.25
2022-08-10T03:18:17.088Z,102652.22
2022-08-10T03:20:44.276Z,102651.38
2022-08-10T03:23:16.930Z,102659.81
2022-08-10T03:25:53.181Z,102660.72
2022-08-10T03:28:31.088Z,102663.91
2022-08-10T03:30:59.209Z,102650.84
2022-08-10T03:33:27.529Z,102653.59
2022-08-10T03:36:42.878Z,102657.25
2022-08-10T03:38:41.270Z,102664.31
2022-08-10T03:41:10.068Z,102659.56
2022-08-10T03:43:37.011Z,102645.25
2022-08-10T03:46:06.477Z,102665.16
2022-08-10T03:48:48.379Z,102668.31
2022-08-10T03:51:19.207Z,102664.97
2022-08-10T03:54:04.567Z,102658.94
2022-08-10T03:56:34.008Z,102665.81
2022-08-10T03:59:01.616Z,102650.84
2022-08-10T04:02:52.006Z,102649.16
2022-08-10T04:04:20.946Z,102658.47
2022-08-10T04:06:54.901Z,102655.97
2022-08-10T04:09:43.213Z,102644.84
2022-08-10T04:12:13.777Z,102653.94
2022-08-10T04:14:49.317Z,102654.94
2022-08-10T04:18:04.262Z,102666.31
2022-08-10T04:20:08.068Z,102647.09
2022-08-10T04:22:35.180Z,102662.91
2022-08-10T04:25:03.348Z,102634.44
2022-08-10T04:27:30.228Z,102659.66
2022-08-10T04:29:57.388Z,102653.84
2022-08-10T04:32:24.389Z,102651.81
2022-08-10T04:34:51.568Z,102662.94
2022-08-10T04:37:18.549Z,102651.19
2022-08-10T04:39:45.513Z,102652.09
2022-08-10T04:42:12.535Z,102643.97
2022-08-10T04:44:39.488Z,102650.94
2022-08-10T04:47:06.267Z,102650.38
2022-08-10T04:49:53.993Z,102663.47
2022-08-10T04:52:21.688Z,102666.75
2022-08-10T04:54:52.228Z,102677.41
2022-08-10T04:57:19.867Z,102652.78
2022-08-10T04:59:46.829Z,102663.59
2022-08-10T05:02:31.591Z,102666.44
2022-08-10T05:04:59.320Z,102671.38
2022-08-10T05:07:26.289Z,102673.25
2022-08-10T05:10:02.031Z,102672.50
2022-08-10T05:12:39.305Z,102657.03
2022-08-10T05:15:13.551Z,102658.88
2022-08-10T05:17:41.207Z,102656.84
2022-08-10T05:20:28.072Z,102666.53
2022-08-10T05:22:54.947Z,102668.16
2022-08-10T05:25:21.908Z,102665.13
2022-08-10T05:27:49.071Z,102652.41
2022-08-10T05:30:17.908Z,102660.63
2022-08-10T05:32:56.189Z,102665.63
2022-08-10T05:35:25.211Z,102662.13
2022-08-10T05:38:10.158Z,102660.66
2022-08-10T05:40:41.032Z,102667.78
2022-08-10T05:43:13.028Z,102667.34
2022-08-10T05:46:18.351Z,102666.06
2022-08-10T05:48:41.609Z,102663.97
2022-08-10T05:51:16.169Z,102666.03
2022-08-10T05:54:02.763Z,102666.88
2022-08-10T05:56:56.215Z,102667.34
2022-08-10T06:00:34.371Z,102675.97
2022-08-10T06:02:35.485Z,102659.03
2022-08-10T06:05:14.027Z,102661.44
2022-08-10T06:08:02.649Z,102671.63
2022-08-10T06:10:32.214Z,102667.31
2022-08-10T06:13:26.959Z,102655.06
2022-08-10T06:15:58.129Z,102659.41
2022-08-10T06:18:25.068Z,102651.69
2022-08-10T06:20:52.273Z,102656.69
2022-08-10T06:23:19.248Z,102646.41
2022-08-10T06:26:10.176Z,102662.78
2022-08-10T06:28:34.110Z,102660.66
2022-08-10T06:31:01.107Z,102650.06
2022-08-10T06:33:28.068Z,102653.41
2022-08-10T06:35:55.570Z,102651.66
2022-08-10T06:38:23.607Z,102666.38
2022-08-10T06:40:50.507Z,102657.50
2022-08-10T06:43:18.916Z,102657.63
2022-08-10T06:46:07.832Z,102662.72
2022-08-10T06:48:39.114Z,102659.81
2022-08-10T06:51:07.307Z,102669.63
2022-08-10T06:53:52.779Z,102662.19
2022-08-10T06:56:37.845Z,102663.75
2022-08-10T06:59:22.983Z,102664.56
2022-08-10T07:01:53.347Z,102653.94
2022-08-10T07:04:32.335Z,102659.84
2022-08-10T07:07:04.667Z,102659.09
2022-08-10T07:09:32.828Z,102660.75
2022-08-10T07:12:07.552Z,102662.19
2022-08-10T07:14:44.334Z,102665.09
2022-08-10T07:17:16.887Z,102654.91
2022-08-10T07:19:50.375Z,102663.38
2022-08-10T07:23:26.939Z,102667.22
2022-08-10T07:25:08.387Z,102659.81
2022-08-10T07:27:58.292Z,102668.47
2022-08-10T07:30:22.328Z,102669.00
2022-08-10T07:32:51.795Z,102651.09
2022-08-10T07:35:19.247Z,102669.38
2022-08-10T07:37:48.111Z,102680.06
2022-08-10T07:40:18.365Z,102682.16
2022-08-10T07:42:46.388Z,102662.25
2022-08-10T07:45:13.528Z,102672.88
2022-08-10T07:48:05.089Z,102669.53
2022-08-10T07:50:35.456Z,102677.31
2022-08-10T07:53:03.269Z,102663.16
2022-08-10T07:56:04.830Z,102668.69
2022-08-10T07:58:18.849Z,102662.50
2022-08-10T08:00:49.528Z,102662.59
2022-08-10T08:03:16.495Z,102657.25
2022-08-10T08:06:02.683Z,102662.97
2022-08-10T08:08:30.609Z,102662.38
2022-08-10T08:10:58.189Z,102661.69
2022-08-10T08:13:25.052Z,102662.72
2022-08-10T08:16:16.950Z,102655.72
2022-08-10T08:18:41.850Z,102674.44
2022-08-10T08:24:04.651Z,102676.38
2022-08-10T08:24:31.036Z,102663.22
2022-08-10T08:27:01.268Z,102656.19
2022-08-10T08:29:28.190Z,102660.53
2022-08-10T08:32:02.383Z,102661.34
2022-08-10T08:34:32.213Z,102662.13
2022-08-10T08:37:00.993Z,102657.44
2022-08-10T08:39:28.661Z,102662.75
2022-08-10T08:42:12.127Z,102665.91
2022-08-10T08:44:41.988Z,102663.66
2022-08-10T08:48:05.226Z,102659.03
2022-08-10T08:50:40.630Z,102668.34
2022-08-10T08:54:00.869Z,102654.75
2022-08-10T08:56:40.311Z,102660.03
2022-08-10T08:59:30.568Z,102661.59
2022-08-10T09:02:14.411Z,102656.50
2022-08-10T09:05:16.688Z,102658.28
2022-08-10T09:08:03.160Z,102664.38
2022-08-10T09:10:41.328Z,102675.66
2022-08-10T09:13:27.306Z,102662.00
2022-08-10T09:16:15.689Z,102659.03
2022-08-10T09:18:48.654Z,102661.75
2022-08-10T09:21:55.215Z,102663.97
2022-08-10T09:24:46.228Z,102658.84
2022-08-10T09:27:22.972Z,102661.25
2022-08-10T09:29:57.633Z,102667.81
2022-08-10T09:36:14.871Z,102656.16
2022-08-10T09:36:29.859Z,102667.53
2022-08-10T09:39:05.351Z,102660.31
2022-08-10T09:41:49.700Z,102651.94
2022-08-10T09:44:31.771Z,102646.03
2022-08-10T09:47:06.428Z,102657.69
2022-08-10T09:50:02.314Z,102654.38
2022-08-10T09:53:08.736Z,102665.47
2022-08-10T09:56:17.577Z,102663.19
2022-08-10T09:58:49.228Z,102649.78
2022-08-10T10:02:00.635Z,102641.16
2022-08-10T10:04:49.008Z,102636.88
2022-08-10T10:07:24.551Z,102637.47
2022-08-10T10:10:02.428Z,102636.69
2022-08-10T10:13:02.708Z,102639.09
2022-08-10T10:15:47.129Z,102628.50
2022-08-10T10:18:29.109Z,102624.88
2022-08-10T10:20:55.909Z,102621.09
2022-08-10T10:24:21.873Z,102613.72
2022-08-10T10:27:01.336Z,102612.97
2022-08-10T10:29:56.853Z,102603.13
2022-08-10T10:32:37.358Z,102600.16
2022-08-10T10:35:26.012Z,102609.78
2022-08-10T10:38:01.779Z,102608.34
2022-08-10T10:40:35.656Z,102606.25
2022-08-10T10:43:33.329Z,102597.09
2022-08-10T10:46:03.332Z,102599.69
2022-08-10T10:48:39.929Z,102591.31
2022-08-10T10:51:15.415Z,102601.72
2022-08-10T10:54:13.507Z,102602.28
2022-08-10T10:56:48.148Z,102597.34
2022-08-10T10:59:55.509Z,102594.88
2022-08-10T11:02:21.167Z,102598.75
2022-08-10T11:05:15.508Z,102603.19
2022-08-10T11:07:53.254Z,102594.72
2022-08-10T11:10:33.010Z,102601.75
2022-08-10T11:14:25.985Z,102599.16
2022-08-10T11:16:17.169Z,102608.53
2022-08-10T11:19:21.308Z,102612.69
2022-08-10T11:22:25.429Z,102625.47
2022-08-10T11:25:16.529Z,102627.78
2022-08-10T11:28:14.087Z,102633.31
2022-08-10T11:30:45.391Z,102646.88
2022-08-10T11:33:42.716Z,102646.97
2022-08-10T11:36:42.347Z,102639.06
2022-08-10T11:39:16.353Z,102630.19
2022-08-10T11:42:11.932Z,102631.94
2022-08-10T11:44:57.668Z,102627.09
2022-08-10T11:47:31.971Z,102620.25
2022-08-10T11:50:31.549Z,102627.69
2022-08-10T11:53:25.790Z,102610.75
2022-08-10T11:55:56.788Z,102608.91
2022-08-10T11:58:43.448Z,102603.56
2022-08-10T12:01:11.888Z,102596.84
2022-08-10T12:03:39.156Z,102594.09
2022-08-10T12:06:08.608Z,102584.53
2022-08-10T12:10:04.326Z,102576.91
2022-08-10T12:11:26.707Z,102591.72
2022-08-10T12:14:22.794Z,102599.47
2022-08-10T12:17:05.408Z,102594.59
2022-08-10T12:20:02.326Z,102587.38
2022-08-10T12:22:33.558Z,102572.56
2022-08-10T12:25:03.467Z,102571.91
2022-08-10T12:27:34.616Z,102584.47
2022-08-10T12:30:06.647Z,102572.16
2022-08-10T12:32:49.994Z,102572.25
2022-08-10T12:35:23.721Z,102574.03
2022-08-10T12:38:23.949Z,102562.44
2022-08-10T12:41:17.007Z,102568.53
2022-08-10T12:44:41.161Z,102568.72
2022-08-10T12:47:35.950Z,102568.66
2022-08-10T12:50:30.545Z,102565.47
2022-08-10T12:53:11.587Z,102553.28
2022-08-10T12:55:39.027Z,102550.50
2022-08-10T12:58:59.077Z,102548.88
2022-08-10T13:01:14.750Z,102551.56
2022-08-10T13:04:21.180Z,102544.44
2022-08-10T13:06:27.068Z,102555.50
2022-08-10T13:09:12.228Z,102543.38
2022-08-10T13:12:36.686Z,102547.03
2022-08-10T13:15:25.322Z,102539.34
2022-08-10T13:17:59.631Z,102543.94
2022-08-10T13:20:34.307Z,102525.56
2022-08-10T13:23:02.296Z,102522.59
2022-08-10T13:25:32.211Z,102531.19
2022-08-10T13:28:36.637Z,102519.38
2022-08-10T13:30:50.648Z,102521.44
2022-08-10T13:34:39.913Z,102518.69
2022-08-10T13:36:05.309Z,102515.09
2022-08-10T13:38:32.268Z,102517.94
2022-08-10T13:40:59.213Z,102510.00
2022-08-10T13:43:26.167Z,102520.75
2022-08-10T13:45:53.208Z,102522.19
2022-08-10T13:48:22.067Z,102522.66
2022-08-10T13:50:50.728Z,102514.44
2022-08-10T13:53:18.129Z,102524.97
2022-08-10T13:55:55.033Z,102514.56
2022-08-10T13:58:33.908Z,102515.44
2022-08-10T14:01:08.685Z,102517.72
2022-08-10T14:03:37.534Z,102521.97
2022-08-10T14:06:05.709Z,102520.09
2022-08-10T14:08:32.689Z,102514.41
2022-08-10T14:11:11.594Z,102528.38
2022-08-10T14:13:58.549Z,102529.81
2022-08-10T14:16:25.628Z,102524.31
2022-08-10T14:18:59.754Z,102525.97
2022-08-10T14:21:26.649Z,102519.72
2022-08-10T14:23:53.960Z,102513.59
2022-08-10T14:26:24.128Z,102516.69
2022-08-10T14:28:54.511Z,102514.56
2022-08-10T14:31:22.950Z,102512.41
2022-08-10T14:33:55.032Z,102514.81
2022-08-10T14:36:32.448Z,102512.31
2022-08-10T14:38:59.550Z,102509.47
2022-08-10T14:42:03.261Z,102517.47
2022-08-10T14:44:15.988Z,102503.44
2022-08-10T14:46:51.694Z,102507.81
2022-08-10T14:49:25.262Z,102504.03
2022-08-10T14:51:56.923Z,102505.75
2022-08-10T14:54:29.706Z,102499.81
2022-08-10T14:56:57.292Z,102501.88
2022-08-10T14:59:45.893Z,102499.84
2022-08-10T15:02:38.112Z,102504.03
2022-08-10T15:05:03.308Z,102502.63
2022-08-10T15:07:30.289Z,102507.53
2022-08-10T15:10:02.196Z,102499.81
2022-08-10T15:12:33.230Z,102508.56
2022-08-10T15:15:01.302Z,102506.19
2022-08-10T15:17:37.933Z,102496.59
2022-08-10T15:20:20.562Z,102498.28
2022-08-10T15:23:30.545Z,102497.66
2022-08-10T15:25:59.698Z,102503.34
2022-08-10T15:28:30.547Z,102501.47
2022-08-10T15:31:20.149Z,102497.25
2022-08-10T15:34:09.812Z,102511.66
2022-08-10T15:37:36.475Z,102517.94
2022-08-10T15:40:24.244Z,102506.28
2022-08-10T15:42:54.082Z,102506.88
2022-08-10T15:45:21.129Z,102510.63
2022-08-10T15:47:52.167Z,102509.53
2022-08-10T15:50:46.289Z,102506.50
2022-08-10T15:53:49.133Z,102501.31
2022-08-10T15:56:28.147Z,102511.56
2022-08-10T15:59:07.983Z,102516.41
2022-08-10T16:02:15.118Z,102513.91
2022-08-10T16:04:32.803Z,102524.78
2022-08-10T16:07:10.969Z,102520.47
2022-08-10T16:10:22.991Z,102519.88
2022-08-10T16:12:34.449Z,102514.25
2022-08-10T16:15:10.429Z,102511.22
2022-08-10T16:17:55.495Z,102509.75
2022-08-10T16:21:00.791Z,102487.00
2022-08-10T16:23:34.395Z,102517.31
2022-08-10T16:26:14.998Z,102508.66
2022-08-10T16:28:51.108Z,102515.28
2022-08-10T16:31:22.555Z,102513.44
2022-08-10T16:33:55.506Z,102497.66
2022-08-10T16:36:22.773Z,102502.63
2022-08-10T16:38:50.470Z,102503.28
2022-08-10T16:42:00.695Z,102492.16
2022-08-10T16:44:06.948Z,102511.09
2022-08-10T16:46:33.949Z,102510.41
2022-08-10T16:49:00.789Z,102507.88
2022-08-10T16:51:27.719Z,102509.22
2022-08-10T16:53:54.616Z,102516.38
2022-08-10T16:56:30.127Z,102504.41
2022-08-10T16:58:57.434Z,102496.38
2022-08-10T17:01:25.988Z,102498.88
2022-08-10T17:04:05.588Z,102504.03
2022-08-10T17:06:57.287Z,102494.50
2022-08-10T17:09:29.312Z,102489.66
2022-08-10T17:11:58.219Z,102498.28
2022-08-10T17:14:28.632Z,102500.59
2022-08-10T17:17:00.354Z,102501.06
2022-08-10T17:19:27.909Z,102498.19
2022-08-10T17:21:59.234Z,102509.50
2022-08-10T17:24:34.570Z,102502.31
2022-08-10T17:28:21.159Z,102507.13
2022-08-10T17:30:03.168Z,102502.78
2022-08-10T17:32:56.427Z,102497.91
2022-08-10T17:35:30.749Z,102505.03
2022-08-10T17:38:02.271Z,102500.97
2022-08-10T17:40:30.047Z,102501.16
2022-08-10T17:42:56.950Z,102513.25
2022-08-10T17:45:47.640Z,102509.03
2022-08-10T17:48:13.309Z,102508.38
2022-08-10T17:50:41.312Z,102503.28
2022-08-10T17:53:16.790Z,102515.50
2022-08-10T17:55:44.928Z,102509.44
2022-08-10T17:58:16.129Z,102509.78
2022-08-10T18:00:44.073Z,102512.63
2022-08-10T18:03:32.050Z,102508.63
2022-08-10T18:06:03.947Z,102513.09
2022-08-10T18:08:40.770Z,102514.56
2022-08-10T18:11:07.708Z,102521.13
2022-08-10T18:13:55.322Z,102517.13
2022-08-10T18:16:33.996Z,102521.13
2022-08-10T18:19:08.279Z,102510.53
2022-08-10T18:21:38.985Z,102522.78
2022-08-10T18:24:16.161Z,102530.53
2022-08-10T18:26:44.036Z,102521.03
2022-08-10T18:29:13.118Z,102527.47
2022-08-10T18:31:44.375Z,102505.19
2022-08-10T18:34:12.955Z,102536.34
2022-08-10T18:36:43.516Z,102520.38
2022-08-10T18:39:11.129Z,102528.63
2022-08-10T18:41:40.009Z,102535.38
2022-08-10T18:44:31.988Z,102521.19
2022-08-10T18:47:04.597Z,102531.28
2022-08-10T18:49:54.744Z,102533.78
2022-08-10T18:52:22.801Z,102537.53
2022-08-10T18:54:50.982Z,102537.53
2022-08-10T18:57:39.459Z,102543.78
2022-08-10T19:00:13.446Z,102546.16
2022-08-10T19:03:10.171Z,102544.06
2022-08-10T19:05:57.999Z,102553.66
2022-08-10T19:08:31.584Z,102551.00
2022-08-10T19:11:24.703Z,102549.72
2022-08-10T19:13:58.687Z,102553.31
2022-08-10T19:16:55.087Z,102550.22
2022-08-10T19:19:59.388Z,102551.03
2022-08-10T19:22:27.798Z,102545.72
2022-08-10T19:25:14.225Z,102554.31
2022-08-10T19:28:18.326Z,102549.34
2022-08-10T19:30:50.518Z,102548.16
2022-08-10T19:33:52.618Z,102555.78
2022-08-10T19:36:45.556Z,102555.25
2022-08-10T19:39:50.602Z,102550.78
2022-08-10T19:42:50.553Z,102546.16
2022-08-10T19:46:00.915Z,102552.63
2022-08-10T19:48:59.564Z,102542.81
2022-08-10T19:51:37.365Z,102549.16
2022-08-10T19:54:10.387Z,102544.09
2022-08-10T19:56:58.696Z,102542.34
2022-08-10T20:00:15.877Z,102541.88
2022-08-10T20:02:25.025Z,102543.09
2022-08-10T20:05:15.896Z,102534.59
2022-08-10T20:07:48.465Z,102525.44
2022-08-10T20:10:19.015Z,102533.53
2022-08-10T20:13:04.346Z,102537.66
2022-08-10T20:15:48.436Z,102535.97
2022-08-10T20:18:24.545Z,102543.06
2022-08-10T20:21:19.176Z,102535.41
2022-08-10T20:24:05.918Z,102534.81
2022-08-10T20:26:52.731Z,102530.84
2022-08-10T20:29:57.876Z,102517.56
2022-08-10T20:32:26.751Z,102515.56
2022-08-10T20:35:08.811Z,102513.91
2022-08-10T20:37:43.498Z,102508.41
2022-08-10T20:40:47.472Z,102510.22
2022-08-10T20:43:28.890Z,102520.03
2022-08-10T20:46:33.195Z,102514.28
2022-08-10T20:49:04.210Z,102525.06
2022-08-10T20:51:57.909Z,102515.22
2022-08-10T20:54:32.618Z,102518.84
2022-08-10T20:57:54.976Z,102525.06
2022-08-10T21:00:13.661Z,102518.72
2022-08-10T21:02:47.816Z,102525.78
2022-08-10T21:05:21.333Z,102526.75
2022-08-10T21:08:10.331Z,102522.78
2022-08-10T21:11:03.551Z,102515.25
2022-08-10T21:13:54.530Z,102514.91
2022-08-10T21:16:54.210Z,102523.41
2022-08-10T21:19:53.674Z,102518.25
2022-08-10T21:22:29.585Z,102510.47
2022-08-10T21:25:31.192Z,102514.19
2022-08-10T21:27:59.852Z,102517.19
2022-08-10T21:30:36.191Z,102515.75
2022-08-10T21:33:12.110Z,102516.69
2022-08-10T21:35:51.052Z,102522.91
2022-08-10T21:38:42.630Z,102520.75
2022-08-10T21:41:58.306Z,102520.63
2022-08-10T21:45:21.530Z,102522.06
2022-08-10T21:48:59.219Z,102520.13
2022-08-10T21:52:01.718Z,102517.13
2022-08-10T21:55:08.723Z,102515.00
2022-08-10T21:58:27.442Z,102520.13
2022-08-10T22:01:16.831Z,102515.94
2022-08-10T22:04:02.030Z,102512.69
2022-08-10T22:06:52.492Z,102507.44
2022-08-10T22:09:42.782Z,102496.06
2022-08-10T22:12:31.981Z,102507.78
2022-08-10T22:15:23.601Z,102500.53
2022-08-10T22:18:31.287Z,102494.69
2022-08-10T22:21:52.265Z,102500.06
2022-08-10T22:28:18.171Z,102499.09
2022-08-10T22:31:26.141Z,102491.78
2022-08-10T22:31:32.214Z,102495.50
2022-08-10T22:34:48.883Z,102495.50
2022-08-10T22:37:52.463Z,102494.88
2022-08-10T22:40:46.566Z,102493.34
2022-08-10T22:43:39.983Z,102495.69
2022-08-10T22:46:41.063Z,102490.66
2022-08-10T22:49:07.862Z,102495.06
2022-08-10T22:51:58.482Z,102491.75
2022-08-10T22:54:52.262Z,102487.66
2022-08-10T22:57:38.023Z,102492.78
2022-08-10T23:00:30.863Z,102485.25
2022-08-10T23:03:22.163Z,102488.72
2022-08-10T23:06:00.606Z,102489.56
2022-08-10T23:08:41.184Z,102488.94
2022-08-10T23:11:08.743Z,102479.47
2022-08-10T23:13:40.943Z,102488.34
2022-08-10T23:16:36.203Z,102485.22
2022-08-10T23:19:12.964Z,102477.66
2022-08-10T23:22:17.244Z,102483.66
2022-08-10T23:24:47.602Z,102484.56
2022-08-10T23:27:38.488Z,102480.41
2022-08-10T23:30:09.915Z,102478.59
2022-08-10T23:32:44.783Z,102480.28
2022-08-10T23:36:31.214Z,102482.91
2022-08-10T23:38:07.002Z,102479.22
2022-08-10T23:40:34.344Z,102469.31
2022-08-10T23:43:01.282Z,102470.50
2022-08-10T23:45:29.222Z,102481.94
2022-08-10T23:48:21.287Z,102482.69
2022-08-10T23:50:59.614Z,102480.72
2022-08-10T23:53:32.122Z,102483.69
2022-08-10T23:56:18.602Z,102479.00
2022-08-10T23:58:58.282Z,102489.28
